SWA793 KPHL-KBNA
Flight info
| Callsign | SWA793 |
|---|---|
| Flight time | N/A |
| Altitude | 32000 |
| Route | MXE PENSY J110 FLIRT J6 MRB/N0459F400 J6 HVQ Q68 YOCKY CUTRR PASLY5 |
| Aircraft | B737/M-SDE2E3FGHIRWXY/LB1 |
Departure
| Time | 2026-05-07 01:06 |
|---|---|
| Airport | Philadelphia International Airport (KPHL) |
Arrival
| Time | N/A |
|---|---|
| Airport | Nashville International Airport (KBNA) |
| Time | Latitude | Longitude | Altitude | Speed | Heading |
|---|---|---|---|---|---|
| 2026-05-07 00:35 | 39.87693 | -75.23674 | 28 ft | 0 kts | 30° |
| 2026-05-07 00:53 | 39.87675 | -75.23688 | 26 ft | 4 kts | 30° |
| 2026-05-07 00:53 | 39.87657 | -75.23701 | 28 ft | 4 kts | 45° |
| 2026-05-07 00:53 | 39.87652 | -75.23724 | 24 ft | 4 kts | 119° |
| 2026-05-07 00:54 | 39.87663 | -75.23748 | 29 ft | 1 kts | 122° |
| 2026-05-07 00:58 | 39.87662 | -75.23745 | 30 ft | 2 kts | 122° |
| 2026-05-07 00:59 | 39.87643 | -75.23705 | 27 ft | 0 kts | 122° |
| 2026-05-07 01:00 | 39.87640 | -75.23700 | 24 ft | 3 kts | 122° |
| 2026-05-07 01:00 | 39.87620 | -75.23657 | 26 ft | 7 kts | 118° |
| 2026-05-07 01:01 | 39.87616 | -75.23599 | 27 ft | 7 kts | 76° |
| 2026-05-07 01:01 | 39.87643 | -75.23550 | 28 ft | 7 kts | 37° |
| 2026-05-07 01:01 | 39.87694 | -75.23522 | 24 ft | 8 kts | 14° |
| 2026-05-07 01:01 | 39.87751 | -75.23499 | 24 ft | 9 kts | 27° |
| 2026-05-07 01:02 | 39.87784 | -75.23439 | 26 ft | 8 kts | 85° |
| 2026-05-07 01:02 | 39.87748 | -75.23383 | 27 ft | 10 kts | 157° |
| 2026-05-07 01:02 | 39.87678 | -75.23348 | 28 ft | 12 kts | 159° |
| 2026-05-07 01:02 | 39.87580 | -75.23299 | 27 ft | 16 kts | 160° |
| 2026-05-07 01:03 | 39.87475 | -75.23248 | 26 ft | 16 kts | 159° |
| 2026-05-07 01:03 | 39.87376 | -75.23199 | 26 ft | 15 kts | 158° |
| 2026-05-07 01:03 | 39.87273 | -75.23145 | 24 ft | 17 kts | 160° |
| 2026-05-07 01:03 | 39.87177 | -75.23099 | 27 ft | 12 kts | 160° |
| 2026-05-07 01:04 | 39.87133 | -75.23128 | 24 ft | 8 kts | 255° |
| 2026-05-07 01:04 | 39.87099 | -75.23184 | 24 ft | 8 kts | 214° |
| 2026-05-07 01:04 | 39.87061 | -75.23246 | 24 ft | 11 kts | 242° |
| 2026-05-07 01:04 | 39.87027 | -75.23361 | 25 ft | 15 kts | 251° |
| 2026-05-07 01:05 | 39.86995 | -75.23414 | 24 ft | 6 kts | 201° |
| 2026-05-07 01:05 | 39.86952 | -75.23409 | 25 ft | 9 kts | 166° |
| 2026-05-07 01:05 | 39.86898 | -75.23429 | 28 ft | 9 kts | 245° |
| 2026-05-07 01:05 | 39.86858 | -75.23628 | 24 ft | 59 kts | 256° |
| 2026-05-07 01:06 | 39.86671 | -75.24543 | 25 ft | 146 kts | 254° |
| 2026-05-07 01:06 | 39.86381 | -75.26093 | 384 ft | 195 kts | 257° |
| 2026-05-07 01:06 | 39.86031 | -75.27807 | 1583 ft | 188 kts | 252° |
| 2026-05-07 01:06 | 39.85666 | -75.29295 | 3220 ft | 163 kts | 253° |
| 2026-05-07 01:07 | 39.85302 | -75.30775 | 4093 ft | 184 kts | 253° |
| 2026-05-07 01:07 | 39.84879 | -75.32514 | 4448 ft | 221 kts | 253° |
| 2026-05-07 01:07 | 39.84388 | -75.34531 | 5109 ft | 243 kts | 253° |
| 2026-05-07 01:07 | 39.83879 | -75.36624 | 6377 ft | 241 kts | 254° |
| 2026-05-07 01:08 | 39.83739 | -75.38794 | 7517 ft | 244 kts | 274° |
| 2026-05-07 01:08 | 39.83970 | -75.40995 | 8630 ft | 249 kts | 275° |
| 2026-05-07 01:08 | 39.84219 | -75.43250 | 9607 ft | 255 kts | 275° |
| 2026-05-07 01:08 | 39.84461 | -75.45523 | 9936 ft | 253 kts | 274° |
| 2026-05-07 01:09 | 39.84694 | -75.47812 | 10011 ft | 255 kts | 274° |
| 2026-05-07 01:09 | 39.84918 | -75.50104 | 10027 ft | 256 kts | 274° |
| 2026-05-07 01:09 | 39.85135 | -75.52408 | 10041 ft | 257 kts | 274° |
| 2026-05-07 01:09 | 39.85351 | -75.54782 | 10162 ft | 276 kts | 274° |
| 2026-05-07 01:10 | 39.85582 | -75.57403 | 10402 ft | 307 kts | 274° |
| 2026-05-07 01:10 | 39.85834 | -75.60303 | 10611 ft | 336 kts | 274° |
| 2026-05-07 01:10 | 39.86106 | -75.63427 | 10985 ft | 355 kts | 274° |
| 2026-05-07 01:10 | 39.86386 | -75.66648 | 11751 ft | 360 kts | 274° |
| 2026-05-07 01:11 | 39.86668 | -75.69890 | 12659 ft | 361 kts | 274° |
| 2026-05-07 01:11 | 39.86949 | -75.73143 | 13476 ft | 364 kts | 274° |
| 2026-05-07 01:11 | 39.87230 | -75.76433 | 14172 ft | 368 kts | 274° |
| 2026-05-07 01:11 | 39.87508 | -75.79711 | 14914 ft | 369 kts | 274° |
| 2026-05-07 01:12 | 39.87788 | -75.83026 | 15715 ft | 369 kts | 274° |
| 2026-05-07 01:12 | 39.88068 | -75.86356 | 16358 ft | 373 kts | 274° |
| 2026-05-07 01:12 | 39.88350 | -75.89726 | 16969 ft | 377 kts | 274° |
| 2026-05-07 01:12 | 39.88634 | -75.93133 | 17620 ft | 379 kts | 274° |
| 2026-05-07 01:13 | 39.88918 | -75.96558 | 18230 ft | 381 kts | 274° |
| 2026-05-07 01:13 | 39.89203 | -76.00001 | 18788 ft | 383 kts | 274° |
| 2026-05-07 01:13 | 39.89487 | -76.03440 | 19414 ft | 382 kts | 274° |
| 2026-05-07 01:13 | 39.89769 | -76.06874 | 20058 ft | 380 kts | 274° |
| 2026-05-07 01:14 | 39.90050 | -76.10301 | 20630 ft | 380 kts | 274° |
| 2026-05-07 01:14 | 39.90330 | -76.13731 | 21174 ft | 381 kts | 274° |
| 2026-05-07 01:14 | 39.90608 | -76.17158 | 21805 ft | 379 kts | 274° |
| 2026-05-07 01:14 | 39.90858 | -76.20573 | 22373 ft | 378 kts | 272° |
| 2026-05-07 01:15 | 39.91022 | -76.23989 | 22837 ft | 378 kts | 271° |
| 2026-05-07 01:15 | 39.91154 | -76.27420 | 23214 ft | 381 kts | 271° |
| 2026-05-07 01:15 | 39.91280 | -76.30827 | 23577 ft | 382 kts | 271° |
| 2026-05-07 01:15 | 39.91413 | -76.34283 | 23931 ft | 382 kts | 271° |
| 2026-05-07 01:16 | 39.91552 | -76.37739 | 24252 ft | 383 kts | 271° |
| 2026-05-07 01:16 | 39.91695 | -76.41204 | 24555 ft | 384 kts | 272° |
| 2026-05-07 01:16 | 39.91842 | -76.44685 | 24820 ft | 385 kts | 271° |
| 2026-05-07 01:16 | 39.91989 | -76.48167 | 25155 ft | 385 kts | 271° |
| 2026-05-07 01:17 | 39.92134 | -76.51648 | 25497 ft | 385 kts | 271° |
| 2026-05-07 01:17 | 39.92280 | -76.55134 | 25841 ft | 383 kts | 271° |
| 2026-05-07 01:17 | 39.92423 | -76.58604 | 26080 ft | 384 kts | 271° |
| 2026-05-07 01:17 | 39.92564 | -76.62077 | 26345 ft | 383 kts | 271° |
| 2026-05-07 01:18 | 39.92519 | -76.65541 | 26683 ft | 380 kts | 263° |
| 2026-05-07 01:18 | 39.92029 | -76.68904 | 27124 ft | 377 kts | 258° |
| 2026-05-07 01:18 | 39.91348 | -76.72194 | 27535 ft | 375 kts | 255° |
| 2026-05-07 01:18 | 39.90466 | -76.75393 | 27903 ft | 376 kts | 250° |
| 2026-05-07 01:19 | 39.89233 | -76.78359 | 28279 ft | 378 kts | 244° |
| 2026-05-07 01:19 | 39.87863 | -76.81282 | 28721 ft | 376 kts | 244° |
| 2026-05-07 01:19 | 39.86492 | -76.84169 | 29183 ft | 374 kts | 244° |
| 2026-05-07 01:19 | 39.85127 | -76.87042 | 29675 ft | 371 kts | 244° |
| 2026-05-07 01:20 | 39.83784 | -76.89877 | 30240 ft | 365 kts | 244° |
| 2026-05-07 01:20 | 39.82461 | -76.92677 | 30731 ft | 361 kts | 245° |
| 2026-05-07 01:20 | 39.81151 | -76.95461 | 31163 ft | 360 kts | 245° |
| 2026-05-07 01:20 | 39.79850 | -76.98228 | 31568 ft | 358 kts | 245° |
| 2026-05-07 01:21 | 39.78555 | -77.00982 | 31875 ft | 357 kts | 245° |
| 2026-05-07 01:21 | 39.75981 | -77.06449 | 31907 ft | 353 kts | 245° |
| 2026-05-07 01:22 | 39.73395 | -77.11939 | 31922 ft | 360 kts | 245° |
| 2026-05-07 01:22 | 39.70757 | -77.17524 | 31924 ft | 365 kts | 245° |
| 2026-05-07 01:23 | 39.68107 | -77.23115 | 31928 ft | 364 kts | 245° |
| 2026-05-07 01:23 | 39.65479 | -77.28644 | 31910 ft | 356 kts | 245° |
| 2026-05-07 01:24 | 39.62886 | -77.34099 | 31920 ft | 354 kts | 245° |
| 2026-05-07 01:24 | 39.60302 | -77.39534 | 31928 ft | 354 kts | 245° |
| 2026-05-07 01:25 | 39.57718 | -77.44958 | 31911 ft | 354 kts | 245° |
| 2026-05-07 01:25 | 39.55110 | -77.50430 | 31915 ft | 362 kts | 244° |
| 2026-05-07 01:26 | 39.52454 | -77.55984 | 31918 ft | 363 kts | 244° |
| 2026-05-07 01:26 | 39.49787 | -77.61544 | 31934 ft | 361 kts | 244° |
| 2026-05-07 01:27 | 39.47141 | -77.67057 | 31915 ft | 360 kts | 244° |
| 2026-05-07 01:27 | 39.44511 | -77.72530 | 31916 ft | 359 kts | 244° |
| 2026-05-07 01:28 | 39.41864 | -77.78032 | 31917 ft | 359 kts | 244° |
| 2026-05-07 01:28 | 39.39218 | -77.83516 | 31913 ft | 359 kts | 244° |
| 2026-05-07 01:29 | 39.36828 | -77.89169 | 31888 ft | 359 kts | 247° |
| 2026-05-07 01:29 | 39.34551 | -77.94942 | 31901 ft | 361 kts | 247° |
| 2026-05-07 01:30 | 39.32261 | -78.00737 | 31914 ft | 362 kts | 247° |
| 2026-05-07 01:30 | 39.29973 | -78.06490 | 31906 ft | 362 kts | 247° |
| 2026-05-07 01:31 | 39.27673 | -78.12256 | 31912 ft | 361 kts | 247° |
| 2026-05-07 01:31 | 39.25360 | -78.18041 | 31914 ft | 360 kts | 247° |
| 2026-05-07 01:32 | 39.23076 | -78.23739 | 31917 ft | 360 kts | 247° |
| 2026-05-07 01:32 | 39.20772 | -78.29482 | 31859 ft | 361 kts | 247° |
| 2026-05-07 01:33 | 39.18456 | -78.35244 | 31902 ft | 362 kts | 247° |
| 2026-05-07 01:33 | 39.16130 | -78.41018 | 31903 ft | 363 kts | 246° |
| 2026-05-07 01:34 | 39.13803 | -78.46783 | 31905 ft | 365 kts | 246° |
| 2026-05-07 01:34 | 39.11467 | -78.52558 | 31898 ft | 366 kts | 246° |
| 2026-05-07 01:35 | 39.09111 | -78.58370 | 31896 ft | 366 kts | 246° |
| 2026-05-07 01:35 | 39.06753 | -78.64180 | 31891 ft | 366 kts | 246° |
| 2026-05-07 01:36 | 39.04391 | -78.69989 | 31914 ft | 366 kts | 246° |
| 2026-05-07 01:36 | 39.02032 | -78.75778 | 31877 ft | 365 kts | 246° |
| 2026-05-07 01:37 | 38.99682 | -78.81548 | 31880 ft | 363 kts | 246° |
| 2026-05-07 01:37 | 38.97322 | -78.87309 | 31893 ft | 364 kts | 246° |
| 2026-05-07 01:38 | 38.94973 | -78.93039 | 31887 ft | 365 kts | 246° |
| 2026-05-07 01:38 | 38.92601 | -78.98820 | 31906 ft | 366 kts | 246° |
| 2026-05-07 01:39 | 38.90225 | -79.04603 | 31893 ft | 366 kts | 246° |
| 2026-05-07 01:39 | 38.87848 | -79.10370 | 31907 ft | 364 kts | 246° |
| 2026-05-07 01:40 | 38.85474 | -79.16130 | 31907 ft | 365 kts | 246° |
| 2026-05-07 01:40 | 38.83575 | -79.22061 | 31897 ft | 361 kts | 256° |
| 2026-05-07 01:41 | 38.82420 | -79.28325 | 31904 ft | 361 kts | 258° |
| 2026-05-07 01:41 | 38.81311 | -79.34604 | 31903 ft | 361 kts | 258° |
| 2026-05-07 01:42 | 38.80187 | -79.40899 | 31897 ft | 362 kts | 258° |
| 2026-05-07 01:42 | 38.79053 | -79.47189 | 31899 ft | 362 kts | 258° |
| 2026-05-07 01:43 | 38.78106 | -79.52413 | 31911 ft | 362 kts | 257° |
| 2026-05-07 01:43 | 38.76969 | -79.58679 | 31936 ft | 361 kts | 257° |
| 2026-05-07 01:44 | 38.75831 | -79.64924 | 31940 ft | 359 kts | 257° |
| 2026-05-07 01:44 | 38.74689 | -79.71171 | 31964 ft | 359 kts | 257° |
| 2026-05-07 01:45 | 38.73552 | -79.77361 | 31966 ft | 359 kts | 258° |
| 2026-05-07 01:45 | 38.72406 | -79.83587 | 31973 ft | 360 kts | 257° |
| 2026-05-07 01:46 | 38.71256 | -79.89813 | 31972 ft | 359 kts | 257° |
| 2026-05-07 01:46 | 38.70104 | -79.96035 | 31972 ft | 359 kts | 257° |
| 2026-05-07 01:47 | 38.68949 | -80.02250 | 31942 ft | 357 kts | 258° |
| 2026-05-07 01:47 | 38.67796 | -80.08435 | 31964 ft | 357 kts | 257° |
| 2026-05-07 01:48 | 38.66644 | -80.14593 | 31963 ft | 357 kts | 257° |
| 2026-05-07 01:48 | 38.65481 | -80.20777 | 31966 ft | 357 kts | 257° |
| 2026-05-07 01:49 | 38.64321 | -80.26952 | 31968 ft | 356 kts | 257° |
| 2026-05-07 01:49 | 38.63158 | -80.33120 | 31966 ft | 356 kts | 257° |
| 2026-05-07 01:50 | 38.61994 | -80.39277 | 31966 ft | 356 kts | 258° |
| 2026-05-07 01:50 | 38.60823 | -80.45439 | 31965 ft | 357 kts | 257° |
| 2026-05-07 01:51 | 38.59651 | -80.51610 | 31983 ft | 357 kts | 257° |
| 2026-05-07 01:51 | 38.58473 | -80.57770 | 31987 ft | 357 kts | 257° |
| 2026-05-07 01:52 | 38.57305 | -80.63880 | 31984 ft | 355 kts | 257° |
| 2026-05-07 01:52 | 38.56124 | -80.70019 | 31995 ft | 355 kts | 257° |
| 2026-05-07 01:53 | 38.54941 | -80.76150 | 31990 ft | 355 kts | 257° |
| 2026-05-07 01:53 | 38.53764 | -80.82248 | 31991 ft | 356 kts | 257° |
| 2026-05-07 01:54 | 38.52575 | -80.88379 | 31979 ft | 354 kts | 257° |
| 2026-05-07 01:54 | 38.51389 | -80.94483 | 31996 ft | 354 kts | 257° |
| 2026-05-07 01:55 | 38.50198 | -81.00591 | 31995 ft | 354 kts | 257° |
| 2026-05-07 01:55 | 38.49009 | -81.06664 | 31990 ft | 354 kts | 257° |
| 2026-05-07 01:56 | 38.47814 | -81.12760 | 31980 ft | 354 kts | 257° |
| 2026-05-07 01:56 | 38.46614 | -81.18861 | 31984 ft | 354 kts | 257° |
| 2026-05-07 01:57 | 38.45412 | -81.24952 | 31989 ft | 354 kts | 257° |
| 2026-05-07 01:57 | 38.44208 | -81.31040 | 32003 ft | 354 kts | 257° |
| 2026-05-07 01:58 | 38.42998 | -81.37130 | 31996 ft | 354 kts | 257° |
| 2026-05-07 01:58 | 38.41788 | -81.43214 | 32003 ft | 354 kts | 257° |
| 2026-05-07 01:59 | 38.40573 | -81.49297 | 31988 ft | 353 kts | 257° |
| 2026-05-07 01:59 | 38.39359 | -81.55363 | 31986 ft | 353 kts | 256° |